Time;durP1;ratioP1;P1;durP2;ratioP2;P2;SDS_P1;SDS_P2;PMS_P1;PMS_P2;Temp;Humidity;BMP_temperature;BMP_pressure;BME280_temperature;BME280_humidity;BME280_pressure;Samples;Min_cycle;Max_cycle;Signal;HPM_P1;HPM_P2
2023/01/10 00:00:33;;;;;;;16.10;2.92;;;;;;;5.19;86.62;100122.44;5004218;28;20134;-47
2023/01/10 00:03:07;;;;;;;23.30;3.88;;;;;;;5.20;86.33;100119.38;5005921;28;20085;-45
2023/01/10 00:05:34;;;;;;;;;;;;;;;5.20;86.44;100115.81;5005755;28;20133;-49
2023/01/10 00:08:02;;;;;;;21.48;5.05;;;;;;;5.19;86.31;100104.03;5005811;28;19960;-44
2023/01/10 00:10:30;;;;;;;11.75;3.25;;;;;;;5.20;86.36;100107.56;5005999;28;20041;-45
2023/01/10 00:15:43;;;;;;;17.98;2.95;;;;;;;5.21;86.48;100099.03;5008272;28;20471;-44
2023/01/10 00:18:10;;;;;;;15.50;2.80;;;;;;;5.21;86.22;100082.56;5015708;28;20060;-44
2023/01/10 00:20:37;;;;;;;20.48;5.05;;;;;;;5.23;86.48;100090.47;5008136;28;20125;-44
2023/01/10 00:23:04;;;;;;;17.75;3.97;;;;;;;5.22;86.48;100089.66;5022830;28;20050;-46
2023/01/10 00:25:33;;;;;;;15.68;3.10;;;;;;;5.23;86.20;100088.53;5007592;28;20507;-44
2023/01/10 00:30:59;;;;;;;7.68;2.47;;;;;;;5.25;86.03;100071.72;5007379;28;20050;-44
2023/01/10 00:33:28;;;;;;;15.98;3.47;;;;;;;5.26;86.15;100078.84;5007428;28;20105;-46
2023/01/10 00:35:55;;;;;;;13.80;4.20;;;;;;;5.26;86.15;100074.16;5007543;28;20397;-44
2023/01/10 00:38:22;;;;;;;9.18;2.03;;;;;;;5.29;86.36;100068.03;5007955;28;20056;-44
2023/01/10 00:40:49;;;;;;;8.85;2.45;;;;;;;5.31;86.14;100060.25;5007464;28;20500;-44
2023/01/10 00:46:03;;;;;;;15.20;2.78;;;;;;;5.33;85.97;100058.00;5007167;28;20438;-45
2023/01/10 00:48:30;;;;;;;20.52;4.68;;;;;;;5.35;85.95;100052.16;5007466;28;20045;-44
2023/01/10 00:50:57;;;;;;;13.30;3.08;;;;;;;5.35;85.90;100047.50;5007264;28;20411;-48
2023/01/10 00:53:24;;;;;;;12.95;3.83;;;;;;;5.35;85.98;100047.50;5007719;28;20362;-44
2023/01/10 00:55:52;;;;;;;12.35;3.03;;;;;;;5.37;86.25;100042.50;5002462;28;20073;-48
2023/01/10 00:58:19;;;;;;;14.20;2.65;;;;;;;5.37;85.70;100019.72;5007131;28;20049;-45
2023/01/10 01:00:50;;;;;;;12.00;2.42;;;;;;;5.39;86.19;100026.50;5006835;28;20108;-45
2023/01/10 01:03:18;;;;;;;11.00;2.75;;;;;;;5.44;85.81;100022.75;4999532;28;20065;-44
2023/01/10 01:05:47;;;;;;;19.40;3.65;;;;;;;5.44;85.79;99998.88;5007430;28;20088;-48
2023/01/10 01:08:15;;;;;;;12.10;3.28;;;;;;;5.42;85.67;99990.16;5007823;28;20445;-45
2023/01/10 01:10:42;;;;;;;8.00;3.17;;;;;;;5.44;85.66;99987.88;5007373;28;20116;-44
2023/01/10 01:13:13;;;;;;;10.70;3.03;;;;;;;5.45;85.68;99997.72;5007445;28;20054;-45
2023/01/10 01:15:40;;;;;;;12.10;3.40;;;;;;;5.47;85.67;99983.69;5006938;28;20141;-44
2023/01/10 01:18:07;;;;;;;13.68;3.67;;;;;;;5.47;85.64;99975.44;4998711;28;20042;-49
2023/01/10 01:20:34;;;;;;;13.30;3.33;;;;;;;5.47;85.59;99957.03;5006993;28;20278;-45
2023/01/10 01:23:01;;;;;;;18.02;4.03;;;;;;;5.47;85.75;99962.53;5007367;28;20054;-49
2023/01/10 01:25:27;;;;;;;23.77;3.78;;;;;;;5.47;85.50;99961.72;5007149;28;20125;-45
2023/01/10 01:27:54;;;;;;;26.83;6.13;;;;;;;5.47;85.66;99954.28;5007496;28;20402;-44
2023/01/10 01:30:21;;;;;;;10.73;3.13;;;;;;;5.48;85.72;99955.09;5007081;28;20045;-45
2023/01/10 01:32:48;;;;;;;14.00;4.20;;;;;;;5.48;85.80;99950.38;5006717;28;20129;-46
2023/01/10 01:35:15;;;;;;;13.90;3.03;;;;;;;5.48;85.76;99930.41;5004612;28;20515;-45
2023/01/10 01:37:43;;;;;;;18.88;2.88;;;;;;;5.48;85.78;99917.44;5007343;28;20042;-46
2023/01/10 01:40:18;;;;;;;12.07;2.85;;;;;;;5.48;86.08;99922.94;5007675;28;20038;-45
2023/01/10 01:42:45;;;;;;;10.48;3.80;;;;;;;5.48;86.07;99917.44;5007336;28;20054;-45
2023/01/10 01:45:21;;;;;;;17.08;3.13;;;;;;;5.48;86.04;99900.97;5007193;28;20060;-45
2023/01/10 01:47:56;;;;;;;23.40;4.28;;;;;;;5.49;86.01;99899.84;5006754;28;20072;-45
2023/01/10 01:50:28;;;;;;;18.13;3.63;;;;;;;5.54;86.14;99905.16;5007324;28;20108;-52
2023/01/10 01:52:59;;;;;;;16.38;3.35;;;;;;;5.60;86.03;99881.06;5006971;28;20068;-44
2023/01/10 01:55:31;;;;;;;17.23;3.33;;;;;;;5.62;86.04;99884.25;4999050;28;20053;-44
2023/01/10 01:58:02;;;;;;;23.93;3.10;;;;;;;5.67;85.89;99883.25;5008215;28;20050;-45
2023/01/10 02:00:29;;;;;;;15.57;3.38;;;;;;;5.69;85.87;99878.25;5010649;28;21184;-44
2023/01/10 02:02:59;;;;;;;21.77;4.05;;;;;;;5.73;85.90;99879.19;5010474;28;20050;-45
2023/01/10 02:05:31;;;;;;;19.30;4.70;;;;;;;5.75;85.91;99882.41;5010672;28;20115;-44
2023/01/10 02:08:01;;;;;;;24.67;4.40;;;;;;;5.73;85.88;99857.22;5010329;28;20042;-45
2023/01/10 02:10:51;;;;;;;21.48;3.60;;;;;;;5.73;85.75;99862.72;5007911;28;20042;-44
2023/01/10 02:13:21;;;;;;;12.80;2.60;;;;;;;5.71;85.92;99845.78;5004011;28;20037;-44
2023/01/10 02:15:48;;;;;;;14.57;3.50;;;;;;;5.69;85.72;99842.56;5008281;28;20049;-45
2023/01/10 02:18:16;;;;;;;21.33;3.60;;;;;;;5.68;85.87;99838.19;5029499;28;20076;-44
2023/01/10 02:20:59;;;;;;;15.50;3.42;;;;;;;5.69;86.04;99828.84;5011238;28;20488;-44
2023/01/10 02:23:32;;;;;;;12.38;2.42;;;;;;;5.70;85.98;99813.94;5017343;28;20403;-47
2023/01/10 02:26:01;;;;;;;15.43;3.38;;;;;;;5.75;86.10;99800.00;4997712;28;20047;-45
2023/01/10 02:29:14;;;;;;;18.15;2.85;;;;;;;5.76;85.94;99796.94;5009938;28;20042;-45
2023/01/10 02:31:55;;;;;;;16.67;4.35;;;;;;;5.75;85.95;99780.78;5010199;28;20396;-45
2023/01/10 02:34:59;;;;;;;11.38;2.28;;;;;;;5.74;86.10;99766.28;5010757;28;20073;-44
2023/01/10 02:37:32;;;;;;;10.40;2.25;;;;;;;5.75;85.92;99761.56;5010020;28;20518;-48
2023/01/10 02:40:04;;;;;;;9.38;1.77;;;;;;;5.77;85.93;99762.06;5009738;28;20122;-45
2023/01/10 02:42:59;;;;;;;19.75;2.00;;;;;;;5.79;86.22;99746.84;5009587;28;20446;-45
2023/01/10 02:45:46;;;;;;;13.05;1.83;;;;;;;5.80;86.06;99744.91;5003738;28;20050;-44
2023/01/10 02:48:15;;;;;;;10.77;2.83;;;;;;;5.81;86.12;99744.53;5009640;28;20050;-44
2023/01/10 02:50:43;;;;;;;11.30;3.15;;;;;;;5.84;86.05;99743.06;5010135;28;20166;-44
2023/01/10 02:53:20;;;;;;;9.63;1.80;;;;;;;5.83;86.16;99734.03;5008261;28;20050;-44
2023/01/10 02:55:50;;;;;;;10.10;2.00;;;;;;;5.83;86.24;99731.28;5005541;28;20440;-43
2023/01/10 02:58:32;;;;;;;9.00;2.03;;;;;;;5.83;86.28;99719.47;5008611;28;20056;-43
2023/01/10 03:01:57;;;;;;;13.30;2.17;;;;;;;5.82;86.27;99709.66;5016543;22;20049;-44
2023/01/10 03:04:36;;;;;;;27.23;2.78;;;;;;;5.80;86.40;99698.22;5007058;28;20103;-52
2023/01/10 03:07:30;;;;;;;21.90;3.25;;;;;;;5.78;86.56;99675.75;5042299;28;20417;-42
2023/01/10 03:10:05;;;;;;;10.45;2.25;;;;;;;5.76;86.56;99664.31;5044017;28;20381;-43
2023/01/10 03:12:45;;;;;;;10.55;2.13;;;;;;;5.72;87.10;99655.16;5045691;28;20060;-44
2023/01/10 03:15:17;;;;;;;15.63;2.28;;;;;;;5.68;87.45;99640.50;5046332;28;20051;-49
2023/01/10 03:17:49;;;;;;;13.45;2.08;;;;;;;5.66;87.45;99623.56;5041252;28;20053;-42
2023/01/10 03:20:19;;;;;;;12.88;1.52;;;;;;;5.62;87.71;99620.69;5047297;28;20037;-44
2023/01/10 03:22:47;;;;;;;9.13;1.60;;;;;;;5.61;87.92;99612.78;5040529;28;20067;-44
2023/01/10 03:25:16;;;;;;;17.52;3.40;;;;;;;5.58;88.17;99610.72;5045340;28;20059;-43
2023/01/10 03:28:08;;;;;;;6.93;1.38;;;;;;;5.57;88.67;99595.38;5045738;28;20646;-43
2023/01/10 03:30:59;;;;;;;8.48;1.80;;;;;;;5.54;88.87;99589.44;5047261;28;20052;-42
2023/01/10 03:33:29;;;;;;;12.13;1.30;;;;;;;5.53;88.81;99567.84;5044950;28;20132;-44
2023/01/10 03:36:25;;;;;;;5.82;1.55;;;;;;;5.52;89.36;99560.72;5046714;28;20044;-42
2023/01/10 03:38:54;;;;;;;7.97;1.13;;;;;;;5.50;89.45;99538.31;5047782;28;20041;-42
2023/01/10 03:41:44;;;;;;;8.23;1.10;;;;;;;5.48;89.83;99533.16;5046841;28;20040;-43
2023/01/10 03:44:43;;;;;;;7.32;1.40;;;;;;;5.47;89.98;99514.28;5006801;28;20049;-48
2023/01/10 03:47:22;;;;;;;6.43;1.23;;;;;;;5.45;90.41;99517.34;5042882;28;20409;-43
2023/01/10 03:49:54;;;;;;;5.60;1.83;;;;;;;5.45;90.64;99494.63;5046090;28;20041;-44
2023/01/10 03:52:22;;;;;;;4.40;2.30;;;;;;;5.44;90.86;99491.06;5049476;28;20049;-47
2023/01/10 03:54:49;;;;;;;7.90;1.42;;;;;;;5.44;91.23;99474.59;5047629;28;20045;-44
2023/01/10 03:57:23;;;;;;;7.20;1.58;;;;;;;5.44;91.51;99455.38;5046487;28;20378;-43
2023/01/10 03:59:58;;;;;;;10.05;1.42;;;;;;;5.45;91.70;99459.72;5047446;28;20049;-43
2023/01/10 04:02:30;;;;;;;7.50;1.30;;;;;;;5.45;91.52;99440.50;5037886;28;20057;-43
2023/01/10 04:04:58;;;;;;;6.70;1.08;;;;;;;5.46;92.07;99441.31;5038489;28;20084;-42
2023/01/10 04:07:25;;;;;;;7.47;0.98;;;;;;;5.45;92.26;99418.53;5047644;28;20056;-42
2023/01/10 04:09:53;;;;;;;5.60;1.08;;;;;;;5.45;92.40;99410.31;5056327;28;20041;-45
2023/01/10 04:12:19;;;;;;;3.83;0.63;;;;;;;5.45;92.85;99380.13;5051898;28;20469;-42
2023/01/10 04:14:46;;;;;;;3.65;0.75;;;;;;;5.43;93.16;99376.94;5048216;28;20033;-42
2023/01/10 04:17:15;;;;;;;2.75;0.63;;;;;;;5.44;93.71;99366.75;5047254;28;20049;-42
2023/01/10 04:19:42;;;;;;;5.70;2.15;;;;;;;5.45;93.09;99369.13;5047557;28;20051;-43
2023/01/10 04:22:10;;;;;;;5.22;0.43;;;;;;;5.46;93.54;99356.22;5047406;28;20132;-42
2023/01/10 04:24:37;;;;;;;2.45;0.35;;;;;;;5.46;93.56;99340.56;5047902;28;20129;-42
2023/01/10 04:27:04;;;;;;;3.35;0.20;;;;;;;5.49;94.52;99333.56;5047890;28;20127;-45
2023/01/10 04:29:31;;;;;;;7.10;0.50;;;;;;;5.50;94.46;99327.75;5047572;28;20048;-42
2023/01/10 04:31:57;;;;;;;1.17;0.20;;;;;;;5.50;94.87;99305.81;5047336;28;20045;-48
2023/01/10 04:34:24;;;;;;;2.10;0.90;;;;;;;5.53;94.62;99326.25;5043934;28;20514;-43
2023/01/10 04:36:51;;;;;;;2.03;0.20;;;;;;;5.53;94.74;99307.81;5046171;28;20377;-44
2023/01/10 04:39:18;;;;;;;0.90;0.30;;;;;;;5.54;95.30;99295.72;5040452;28;20055;-43
2023/01/10 04:41:44;;;;;;;4.57;0.32;;;;;;;5.56;95.59;99294.56;5044604;28;20051;-42
2023/01/10 04:44:11;;;;;;;0.47;0.20;;;;;;;5.58;95.62;99284.03;5054824;28;20052;-44
2023/01/10 04:46:38;;;;;;;1.40;0.30;;;;;;;5.59;95.87;99280.16;5043361;28;20043;-48
2023/01/10 04:49:06;;;;;;;0.77;0.20;;;;;;;5.60;96.43;99257.03;5043958;28;20045;-44
2023/01/10 04:51:32;;;;;;;0.95;0.30;;;;;;;5.62;96.58;99230.03;5044784;28;20041;-44
2023/01/10 04:53:59;;;;;;;1.27;0.22;;;;;;;5.63;97.00;99237.94;5040005;28;20540;-42
2023/01/10 04:56:26;;;;;;;1.20;0.40;;;;;;;5.68;96.96;99223.16;5037490;28;20183;-43
2023/01/10 04:58:53;;;;;;;0.55;0.20;;;;;;;5.70;97.30;99215.34;5043790;28;20482;-42
2023/01/10 05:01:23;;;;;;;1.35;0.10;;;;;;;5.71;97.51;99200.47;5056629;28;20055;-43
2023/01/10 05:03:52;;;;;;;0.85;0.10;;;;;;;5.75;97.70;99195.88;5084940;28;20161;-43
2023/01/10 05:06:20;;;;;;;1.13;0.10;;;;;;;5.78;97.84;99190.50;5081850;28;20463;-43
2023/01/10 05:08:47;;;;;;;0.10;0.10;;;;;;;5.81;98.01;99156.03;5081758;28;20044;-44
2023/01/10 05:11:14;;;;;;;1.25;0.08;;;;;;;5.84;98.30;99177.31;5079488;28;20131;-42
2023/01/10 05:13:41;;;;;;;0.20;0.10;;;;;;;5.87;98.47;99143.69;5086202;28;20348;-41
2023/01/10 05:16:08;;;;;;;0.43;0.20;;;;;;;5.89;98.32;99144.13;5083899;28;20045;-44
2023/01/10 05:18:34;;;;;;;3.63;0.20;;;;;;;5.92;98.57;99144.22;5081063;28;20467;-43
2023/01/10 05:21:04;;;;;;;2.10;0.13;;;;;;;5.95;98.39;99132.53;5084262;28;20055;-48
2023/01/10 05:23:31;;;;;;;0.85;0.15;;;;;;;5.98;98.85;99117.28;5085054;28;20120;-42
2023/01/10 05:26:17;;;;;;;0.60;0.30;;;;;;;6.00;98.85;99115.78;5072381;28;20048;-44
2023/01/10 05:28:44;;;;;;;0.10;0.10;;;;;;;6.04;99.05;99091.94;5084760;28;20442;-43
2023/01/10 05:31:15;;;;;;;0.00;0.00;;;;;;;6.10;99.57;99098.75;5082263;28;20052;-42
2023/01/10 05:33:50;;;;;;;0.93;0.10;;;;;;;6.14;99.53;99104.34;5083830;28;20465;-42
2023/01/10 05:36:17;;;;;;;0.17;0.03;;;;;;;6.17;99.31;99086.34;5083865;28;20089;-43
2023/01/10 05:38:45;;;;;;;0.85;0.10;;;;;;;6.22;99.88;99089.63;5076409;28;20646;-42
2023/01/10 05:41:12;;;;;;;0.10;0.10;;;;;;;6.27;99.92;99063.81;5078587;28;20127;-42
2023/01/10 05:43:38;;;;;;;0.10;0.00;;;;;;;6.31;100.00;99067.44;5085297;28;20044;-42
2023/01/10 05:46:05;;;;;;;0.57;0.10;;;;;;;6.33;99.82;99065.16;5068613;28;20074;-44
2023/01/10 05:48:32;;;;;;;0.13;0.00;;;;;;;6.34;100.00;99042.78;5086448;28;20068;-43
2023/01/10 05:50:59;;;;;;;0.20;0.00;;;;;;;6.38;100.00;99038.16;5086941;28;20109;-45
2023/01/10 05:53:26;;;;;;;0.55;0.00;;;;;;;6.42;100.00;99033.53;5086867;28;20051;-44
2023/01/10 05:55:58;;;;;;;0.00;0.00;;;;;;;6.44;100.00;99020.22;5086402;28;20058;-43
2023/01/10 05:58:26;;;;;;;1.65;0.10;;;;;;;6.47;100.00;98996.72;5090158;28;20279;-42
2023/01/10 06:00:54;;;;;;;1.35;0.00;;;;;;;6.49;100.00;98994.41;5086132;28;20048;-50
2023/01/10 06:03:21;;;;;;;0.43;0.10;;;;;;;6.53;100.00;98987.84;5086641;28;20406;-43
2023/01/10 06:05:48;;;;;;;0.10;0.05;;;;;;;6.56;100.00;98989.88;5085882;28;20046;-46
2023/01/10 06:08:15;;;;;;;3.10;0.22;;;;;;;6.58;100.00;98975.75;5086915;28;20134;-45
2023/01/10 06:10:42;;;;;;;0.70;0.10;;;;;;;6.62;100.00;98971.13;5086016;28;20044;-42
2023/01/10 06:13:10;;;;;;;0.10;0.00;;;;;;;6.64;100.00;98952.31;5085002;28;20040;-43
2023/01/10 06:15:38;;;;;;;2.95;0.10;;;;;;;6.64;100.00;98944.88;5082620;28;20047;-42
2023/01/10 06:18:05;;;;;;;0.70;0.17;;;;;;;6.66;100.00;98950.81;5083425;28;20548;-42
2023/01/10 06:20:32;;;;;;;2.60;0.22;;;;;;;6.67;100.00;98944.13;5085336;28;20083;-50
2023/01/10 06:23:03;;;;;;;0.22;0.10;;;;;;;6.70;100.00;98929.66;5080691;28;20036;-42
2023/01/10 06:25:35;;;;;;;0.90;0.30;;;;;;;6.72;100.00;98921.81;5086537;28;20561;-45
2023/01/10 06:28:02;;;;;;;0.63;0.35;;;;;;;6.74;100.00;98913.22;5084097;28;20044;-42
2023/01/10 06:30:29;;;;;;;0.25;0.10;;;;;;;6.76;100.00;98913.66;5082814;28;20058;-46
2023/01/10 06:33:03;;;;;;;0.20;0.10;;;;;;;6.78;100.00;98902.31;5083326;28;20055;-43
2023/01/10 06:35:32;;;;;;;0.20;0.20;;;;;;;6.81;100.00;98904.31;5083206;28;20083;-42
2023/01/10 06:37:58;;;;;;;0.30;0.10;;;;;;;6.83;100.00;98888.25;5082615;28;20040;-48
2023/01/10 06:40:26;;;;;;;0.32;0.20;;;;;;;6.86;100.00;98887.53;5082570;28;20082;-42
2023/01/10 06:42:53;;;;;;;0.65;0.65;;;;;;;6.87;100.00;98875.34;5085289;28;20036;-42
2023/01/10 06:45:20;;;;;;;0.30;0.10;;;;;;;6.89;100.00;98875.78;5081471;28;20047;-42
2023/01/10 06:47:47;;;;;;;0.63;0.32;;;;;;;6.93;100.00;98862.88;5088975;28;20048;-43
2023/01/10 06:50:13;;;;;;;4.75;0.40;;;;;;;6.93;100.00;98852.69;5089770;28;20040;-42
2023/01/10 06:52:40;;;;;;;1.15;0.30;;;;;;;6.96;100.00;98857.47;5085808;28;20048;-43
2023/01/10 06:55:07;;;;;;;0.38;0.38;;;;;;;6.98;100.00;98844.13;5085629;28;20044;-42
2023/01/10 06:57:34;;;;;;;2.72;0.20;;;;;;;6.99;100.00;98842.94;5075150;28;20123;-47
2023/01/10 07:00:06;;;;;;;0.43;0.20;;;;;;;7.02;100.00;98830.41;5087426;28;20113;-42
2023/01/10 07:02:32;;;;;;;0.15;0.10;;;;;;;7.06;100.00;98820.28;5090347;28;20052;-46
2023/01/10 07:04:59;;;;;;;1.27;0.10;;;;;;;7.08;100.00;98817.94;5090818;28;20532;-43
2023/01/10 07:07:26;;;;;;;1.23;0.30;;;;;;;7.07;100.00;98814.38;5091280;28;20055;-51
2023/01/10 07:09:52;;;;;;;1.88;0.40;;;;;;;7.07;100.00;98816.38;5091693;28;20054;-46
2023/01/10 07:12:19;;;;;;;0.63;0.32;;;;;;;7.07;100.00;98819.88;5091540;28;20060;-42
2023/01/10 07:14:46;;;;;;;2.45;0.40;;;;;;;7.09;100.00;98806.56;5091201;28;20046;-43
2023/01/10 07:17:12;;;;;;;0.50;0.20;;;;;;;7.13;100.00;98804.66;5099778;28;20066;-43
2023/01/10 07:19:39;;;;;;;0.17;0.10;;;;;;;7.34;100.00;98802.22;5091326;28;20044;-42
2023/01/10 07:22:06;;;;;;;0.00;0.00;;;;;;;7.61;100.00;98797.50;5091291;28;20047;-43
2023/01/10 07:24:33;;;;;;;0.35;0.15;;;;;;;7.85;100.00;98799.00;5090806;28;20044;-44
2023/01/10 07:26:59;;;;;;;0.75;0.10;;;;;;;8.09;100.00;98789.44;5072821;28;20052;-43
2023/01/10 07:29:26;;;;;;;0.10;0.10;;;;;;;8.29;100.00;98777.09;5090845;28;20036;-42
2023/01/10 07:31:53;;;;;;;0.40;0.10;;;;;;;8.51;100.00;98776.94;5090861;28;20660;-50
2023/01/10 07:34:19;;;;;;;0.10;0.10;;;;;;;8.65;100.00;98773.53;5091919;28;20485;-43
2023/01/10 07:36:46;;;;;;;1.13;0.20;;;;;;;8.77;100.00;98756.69;5090505;28;20036;-46
2023/01/10 07:39:13;;;;;;;0.10;0.00;;;;;;;8.89;100.00;98764.69;5091158;28;20067;-43
2023/01/10 07:41:40;;;;;;;0.10;0.10;;;;;;;8.97;100.00;98747.00;5088687;28;20048;-44
2023/01/10 07:44:06;;;;;;;0.90;0.13;;;;;;;9.05;100.00;98747.84;5087837;28;20048;-42
2023/01/10 07:46:33;;;;;;;0.28;0.15;;;;;;;9.09;100.00;98730.13;5088280;28;20043;-43
2023/01/10 07:49:00;;;;;;;0.30;0.08;;;;;;;9.15;100.00;98731.38;5088449;28;20398;-42
2023/01/10 07:51:26;;;;;;;0.10;0.10;;;;;;;9.21;100.00;98731.81;5084265;28;20047;-43
2023/01/10 07:53:53;;;;;;;0.60;0.00;;;;;;;9.26;100.00;98719.59;5088395;28;20051;-43
2023/01/10 07:56:20;;;;;;;0.00;0.00;;;;;;;9.29;100.00;98725.16;5088590;28;20044;-43
2023/01/10 07:58:47;;;;;;;0.50;0.10;;;;;;;9.32;100.00;98712.53;5088406;28;20047;-42
2023/01/10 08:01:13;;;;;;;0.10;0.10;;;;;;;9.36;100.00;98713.34;5069954;28;20043;-42
2023/01/10 08:03:40;;;;;;;2.17;0.20;;;;;;;9.40;100.00;98712.16;5088310;28;20052;-43
2023/01/10 08:06:11;;;;;;;0.55;0.10;;;;;;;9.43;100.00;98696.78;5087907;28;20138;-42
2023/01/10 08:08:42;;;;;;;0.00;0.00;;;;;;;9.51;100.00;98706.69;5080455;28;20036;-43
2023/01/10 08:11:08;;;;;;;0.20;0.10;;;;;;;9.55;100.00;98704.75;5080177;28;20044;-44
2023/01/10 08:13:35;;;;;;;0.15;0.15;;;;;;;9.62;100.00;98700.06;5089650;28;20455;-44
2023/01/10 08:16:06;;;;;;;0.22;0.10;;;;;;;9.70;100.00;98689.81;5088927;28;20067;-46
2023/01/10 08:18:33;;;;;;;1.08;0.30;;;;;;;9.71;100.00;98703.25;5083118;28;20052;-44
2023/01/10 08:21:00;;;;;;;1.10;0.30;;;;;;;9.77;100.00;98700.88;5089638;28;20131;-43
2023/01/10 08:23:27;;;;;;;0.57;0.20;;;;;;;9.78;100.00;98692.22;5089383;28;20048;-45
2023/01/10 08:25:57;;;;;;;1.95;0.40;;;;;;;9.80;100.00;98691.81;5089978;28;20052;-45
2023/01/10 08:28:24;;;;;;;0.85;0.20;;;;;;;9.80;100.00;98681.56;5077360;28;20433;-46
2023/01/10 08:30:54;;;;;;;0.63;0.30;;;;;;;9.83;100.00;98688.28;5089422;28;20047;-43
2023/01/10 08:33:22;;;;;;;0.25;0.13;;;;;;;9.88;100.00;98690.66;5085402;28;20082;-47
2023/01/10 08:35:50;;;;;;;0.15;0.10;;;;;;;9.89;100.00;98683.16;5086777;28;20151;-43
2023/01/10 08:38:17;;;;;;;1.33;0.10;;;;;;;9.92;100.00;98691.47;5089509;28;20040;-43
2023/01/10 08:40:43;;;;;;;0.47;0.20;;;;;;;9.96;100.00;98703.31;5089190;28;20056;-47
2023/01/10 08:43:11;;;;;;;0.75;0.10;;;;;;;10.00;100.00;98686.75;5090074;28;20070;-44
2023/01/10 08:45:38;;;;;;;0.10;0.10;;;;;;;10.03;100.00;98700.59;5089177;28;20048;-45
2023/01/10 08:48:08;;;;;;;0.20;0.10;;;;;;;10.08;100.00;98678.09;5089287;28;20048;-43
2023/01/10 08:50:35;;;;;;;1.75;0.20;;;;;;;10.13;100.00;98686.03;5088697;28;20040;-44
2023/01/10 08:53:01;;;;;;;1.17;0.22;;;;;;;10.15;100.00;98677.34;5085324;28;20441;-42
2023/01/10 08:55:30;;;;;;;0.60;0.15;;;;;;;10.17;100.00;98686.81;5088995;28;20143;-43
2023/01/10 08:58:01;;;;;;;1.98;0.13;;;;;;;10.19;100.00;98684.44;5089693;28;20044;-51
2023/01/10 09:00:28;;;;;;;1.02;0.30;;;;;;;10.22;100.00;98667.06;5089422;28;20610;-43
2023/01/10 09:02:55;;;;;;;3.88;1.17;;;;;;;10.25;100.00;98677.34;5088500;28;20417;-43
2023/01/10 09:05:22;;;;;;;0.32;0.10;;;;;;;10.28;100.00;98682.09;5088344;28;20052;-44
2023/01/10 09:07:59;;;;;;;2.75;0.30;;;;;;;10.29;100.00;98672.63;5088787;28;20050;-51
2023/01/10 09:10:27;;;;;;;0.68;0.22;;;;;;;10.30;100.00;98671.44;5088896;28;20051;-43
2023/01/10 09:12:53;;;;;;;1.88;0.43;;;;;;;10.35;100.00;98684.09;5076022;28;20044;-43
2023/01/10 09:15:26;;;;;;;2.92;0.30;;;;;;;10.35;100.00;98668.25;5089521;28;20053;-45
2023/01/10 09:17:57;;;;;;;1.83;0.38;;;;;;;10.36;100.00;98666.28;5080144;28;20044;-42
2023/01/10 09:20:25;;;;;;;0.75;0.30;;;;;;;10.37;100.00;98674.22;5088619;28;20067;-43
2023/01/10 09:22:52;;;;;;;1.42;0.88;;;;;;;10.38;100.00;98661.16;5088574;28;20051;-43
2023/01/10 09:25:19;;;;;;;1.08;0.22;;;;;;;10.42;100.00;98663.94;5088623;28;20060;-44
2023/01/10 09:27:46;;;;;;;0.40;0.20;;;;;;;10.44;100.00;98669.84;5088788;28;20038;-43
2023/01/10 09:30:13;;;;;;;2.85;0.63;;;;;;;10.46;100.00;98665.50;5088414;28;20071;-44
2023/01/10 09:32:40;;;;;;;0.82;0.20;;;;;;;10.50;100.00;98668.28;5089185;28;20043;-43
2023/01/10 09:35:07;;;;;;;0.38;0.22;;;;;;;10.53;100.00;98664.72;5085966;28;20072;-49
2023/01/10 09:37:33;;;;;;;0.63;0.40;;;;;;;10.57;100.00;98673.81;5088893;28;20135;-44
2023/01/10 09:40:00;;;;;;;0.52;0.40;;;;;;;10.61;100.00;98677.38;5088443;28;20040;-41
2023/01/10 09:42:39;;;;;;;1.83;0.40;;;;;;;10.60;100.00;98675.78;5088348;28;20083;-43
2023/01/10 09:45:47;;;;;;;0.75;0.40;;;;;;;10.61;100.00;98674.63;5070300;28;20043;-43
2023/01/10 09:48:52;;;;;;;0.98;0.32;;;;;;;10.63;100.00;98675.00;5088722;28;20493;-44
2023/01/10 09:51:29;;;;;;;4.82;1.33;;;;;;;10.63;100.00;98667.50;5088122;28;20044;-42
2023/01/10 09:53:58;;;;;;;3.25;0.55;;;;;;;10.66;100.00;98663.16;5088432;28;20059;-46
2023/01/10 09:56:39;;;;;;;2.13;0.52;;;;;;;10.69;100.00;98654.06;5088324;28;20048;-45
2023/01/10 09:59:14;;;;;;;2.17;0.50;;;;;;;10.70;100.00;98645.34;5088510;28;20072;-44
2023/01/10 10:01:40;;;;;;;3.65;0.70;;;;;;;10.73;100.00;98636.25;5088475;28;20573;-43
2023/01/10 10:04:31;;;;;;;2.58;0.40;;;;;;;10.76;100.00;98646.53;5088373;28;20494;-48
2023/01/10 10:06:58;;;;;;;2.25;0.57;;;;;;;10.78;100.00;98648.88;5078758;28;20131;-43
2023/01/10 10:09:28;;;;;;;1.17;0.52;;;;;;;10.80;100.00;98646.53;5088410;28;20055;-47
2023/01/10 10:12:25;;;;;;;1.40;0.50;;;;;;;10.82;100.00;98642.19;5088663;28;20061;-51
2023/01/10 10:14:58;;;;;;;1.10;0.45;;;;;;;10.84;100.00;98630.69;5078653;28;20044;-45
2023/01/10 10:17:34;;;;;;;0.40;0.20;;;;;;;10.86;100.00;98629.13;5083542;28;20040;-43
2023/01/10 10:20:20;;;;;;;2.40;1.77;;;;;;;10.88;100.00;98629.50;5074146;28;20218;-43
2023/01/10 10:23:12;;;;;;;1.42;0.90;;;;;;;10.95;100.00;98628.72;5079341;28;20067;-46
2023/01/10 10:26:05;;;;;;;2.78;0.32;;;;;;;10.96;100.00;98614.47;5090364;28;20115;-44
2023/01/10 10:28:54;;;;;;;0.45;0.30;;;;;;;10.95;100.00;98618.44;5086167;28;20055;-43
2023/01/10 10:31:52;;;;;;;3.33;0.32;;;;;;;11.01;100.00;98616.03;5086880;28;20081;-43
2023/01/10 10:34:37;;;;;;;1.35;0.30;;;;;;;11.01;100.00;98613.28;5080838;28;20044;-42
2023/01/10 10:37:35;;;;;;;1.77;0.57;;;;;;;11.02;100.00;98625.91;5087526;28;20044;-43
2023/01/10 10:40:24;;;;;;;1.15;0.20;;;;;;;11.04;100.00;98618.00;5086397;28;20097;-43
2023/01/10 10:42:54;;;;;;;0.68;0.13;;;;;;;11.08;100.00;98613.25;5085608;28;20146;-47
2023/01/10 10:45:46;;;;;;;0.98;0.50;;;;;;;11.10;100.00;98610.84;5090970;28;20486;-44
2023/01/10 10:48:22;;;;;;;3.10;0.40;;;;;;;11.13;100.00;98599.00;5090805;28;20062;-43
2023/01/10 10:50:57;;;;;;;1.65;0.32;;;;;;;11.15;100.00;98596.59;5084225;28;20044;-43
2023/01/10 10:53:23;;;;;;;0.25;0.20;;;;;;;11.20;100.00;98596.19;5083842;28;20366;-47
2023/01/10 10:55:52;;;;;;;2.60;0.35;;;;;;;11.25;100.00;98593.00;5083318;28;20071;-49
2023/01/10 10:58:19;;;;;;;1.20;0.25;;;;;;;11.29;100.00;98593.78;5091862;28;20125;-43
2023/01/10 11:00:46;;;;;;;3.53;0.35;;;;;;;11.31;100.00;98596.94;5090256;28;20429;-44
2023/01/10 11:03:19;;;;;;;2.85;0.82;;;;;;;11.34;100.00;98573.97;5083069;28;20036;-42
2023/01/10 11:05:47;;;;;;;0.85;0.30;;;;;;;11.38;100.00;98573.97;5071004;28;20443;-42
2023/01/10 11:08:16;;;;;;;1.45;0.30;;;;;;;11.40;100.00;98569.59;5091247;28;20055;-46
2023/01/10 11:10:52;;;;;;;0.20;0.10;;;;;;;11.41;100.00;98562.84;5086139;28;20433;-44
2023/01/10 11:13:25;;;;;;;2.35;0.28;;;;;;;11.42;100.00;98556.13;5085324;28;20048;-49
2023/01/10 11:15:51;;;;;;;0.95;0.25;;;;;;;11.43;100.00;98552.19;5079938;28;20076;-42
2023/01/10 11:18:25;;;;;;;1.15;0.20;;;;;;;11.46;100.00;98562.44;5082266;28;20484;-48
2023/01/10 11:20:57;;;;;;;1.95;0.30;;;;;;;11.49;100.00;98539.44;5090782;28;20050;-44
2023/01/10 11:23:39;;;;;;;2.05;0.40;;;;;;;11.54;100.00;98549.34;5090597;28;20051;-42
2023/01/10 11:26:09;;;;;;;1.58;0.60;;;;;;;11.54;100.00;98541.78;5079142;28;20043;-43
2023/01/10 11:28:37;;;;;;;2.65;0.50;;;;;;;11.56;100.00;98522.81;5089921;28;20056;-42
2023/01/10 11:31:04;;;;;;;3.63;0.60;;;;;;;11.56;100.00;98533.88;5091382;28;20123;-43
2023/01/10 11:33:38;;;;;;;2.03;0.40;;;;;;;11.56;100.00;98538.63;5087986;28;20050;-42
2023/01/10 11:36:08;;;;;;;1.35;0.20;;;;;;;11.58;100.00;98512.09;5090272;28;20119;-42
2023/01/10 11:38:35;;;;;;;3.30;0.57;;;;;;;11.63;100.00;98511.66;5088534;28;20047;-43
2023/01/10 11:41:17;;;;;;;2.60;0.50;;;;;;;11.63;100.00;98505.31;5089759;28;20056;-43
2023/01/10 11:43:45;;;;;;;1.17;0.20;;;;;;;11.62;100.00;98510.06;5057256;28;20124;-41
2023/01/10 11:46:16;;;;;;;0.70;0.30;;;;;;;11.67;100.00;98499.75;5083223;28;20067;-49
2023/01/10 11:48:48;;;;;;;0.77;0.40;;;;;;;11.69;100.00;98494.63;5085240;28;20071;-43
2023/01/10 11:51:36;;;;;;;2.30;0.22;;;;;;;11.72;100.00;98471.66;5089125;28;20044;-46
2023/01/10 11:54:10;;;;;;;;;;;;;;;11.72;100.00;98479.97;5087893;28;20052;-42
2023/01/10 11:56:42;;;;;;;1.45;0.40;;;;;;;11.72;100.00;98468.88;5085894;28;19920;-42
2023/01/10 11:59:14;;;;;;;0.65;0.40;;;;;;;11.72;100.00;98469.66;5089203;28;20044;-42